createdAt,value
2017-06-02T00:00:50.468Z,0
2017-06-02T00:01:50.457Z,0
2017-06-02T00:02:50.445Z,0
2017-06-02T00:03:50.502Z,0
2017-06-02T00:04:50.429Z,0
2017-06-02T00:05:50.415Z,0
2017-06-02T00:06:50.707Z,0
2017-06-02T00:07:50.397Z,0
2017-06-02T00:08:50.691Z,0
2017-06-02T00:09:50.676Z,0
2017-06-02T00:10:50.666Z,0
2017-06-02T00:11:50.661Z,0
2017-06-02T00:12:50.646Z,0
2017-06-02T00:13:50.632Z,0
2017-06-02T00:14:50.323Z,0
2017-06-02T00:15:50.615Z,0
2017-06-02T00:16:50.606Z,0
2017-06-02T00:17:50.593Z,0
2017-06-02T00:18:50.583Z,0
2017-06-02T00:19:50.572Z,0
2017-06-02T00:21:03.953Z,0
2017-06-02T00:21:50.554Z,0
2017-06-02T00:22:50.538Z,0
2017-06-02T00:23:50.528Z,0
2017-06-02T00:24:50.526Z,0
2017-06-02T00:25:50.423Z,0
2017-06-02T00:27:03.887Z,0
2017-06-02T00:27:50.189Z,0
2017-06-02T00:28:50.479Z,0
2017-06-02T00:29:50.168Z,0
2017-06-02T00:30:50.658Z,0
2017-06-02T00:31:50.453Z,0
2017-06-02T00:32:50.139Z,0
2017-06-02T00:33:50.430Z,0
2017-06-02T00:34:50.417Z,0
2017-06-02T00:35:50.410Z,0
2017-06-02T00:36:50.405Z,0
2017-06-02T00:37:50.386Z,0
2017-06-02T00:38:50.072Z,0
2017-06-02T00:39:50.370Z,0
2017-06-02T00:40:50.359Z,0
2017-06-02T00:41:50.351Z,0
2017-06-02T00:42:50.352Z,0
2017-06-02T00:43:50.326Z,0
2017-06-02T00:44:50.314Z,0
2017-06-02T00:45:50.304Z,0
2017-06-02T00:46:50.298Z,0
2017-06-02T00:47:50.287Z,0
2017-06-02T00:48:50.274Z,0
2017-06-02T00:49:50.265Z,0
2017-06-02T00:50:50.249Z,0
2017-06-02T00:51:50.244Z,0
2017-06-02T00:52:50.236Z,0
2017-06-02T00:53:50.236Z,0
2017-06-02T00:54:50.211Z,0
2017-06-02T00:55:49.897Z,0
2017-06-02T00:56:50.187Z,0
2017-06-02T00:57:50.393Z,0
2017-06-02T00:58:50.173Z,0
2017-06-02T00:59:50.157Z,0
2017-06-02T01:00:50.149Z,0
2017-06-02T01:01:50.140Z,0
2017-06-02T01:03:03.505Z,0
2017-06-02T01:04:04.002Z,0
2017-06-02T01:04:50.106Z,0
2017-06-02T01:05:50.091Z,0
2017-06-02T01:06:50.081Z,0
2017-06-02T01:07:50.071Z,0
2017-06-02T01:08:50.058Z,0
2017-06-02T01:09:50.047Z,0
2017-06-02T01:10:50.037Z,0
2017-06-02T01:11:50.025Z,0
2017-06-02T01:12:49.710Z,0
2017-06-02T01:13:50.059Z,0
2017-06-02T01:14:49.690Z,0
2017-06-02T01:15:49.980Z,0
2017-06-02T01:16:49.664Z,0
2017-06-02T01:17:49.656Z,0
2017-06-02T01:18:49.963Z,0
2017-06-02T01:19:49.931Z,0
2017-06-02T01:20:49.928Z,0
2017-06-02T01:21:49.609Z,0
2017-06-02T01:22:49.604Z,0
2017-06-02T01:23:49.889Z,0
2017-06-02T01:24:49.875Z,0
2017-06-02T01:25:49.565Z,0
2017-06-02T01:26:49.570Z,0
2017-06-02T01:27:49.850Z,0
2017-06-02T01:28:49.531Z,0
2017-06-02T01:29:49.735Z,0
2017-06-02T01:30:49.508Z,0
2017-06-02T01:31:49.504Z,0
2017-06-02T01:32:49.798Z,0
2017-06-02T01:33:49.779Z,0
2017-06-02T01:34:49.674Z,0
2017-06-02T01:35:49.757Z,0
2017-06-02T01:36:49.750Z,0
2017-06-02T01:37:49.741Z,0
2017-06-02T01:38:49.726Z,0
2017-06-02T01:39:49.609Z,0
2017-06-02T01:40:49.398Z,0
2017-06-02T01:41:49.388Z,0
2017-06-02T01:42:49.685Z,0
2017-06-02T01:43:49.669Z,0
2017-06-02T01:44:49.661Z,0
2017-06-02T01:45:49.647Z,0
2017-06-02T01:46:49.636Z,0
2017-06-02T01:47:49.628Z,0
2017-06-02T01:48:49.621Z,0
2017-06-02T01:49:49.601Z,0
2017-06-02T01:50:49.591Z,0
2017-06-02T01:51:49.587Z,0
2017-06-02T01:52:49.571Z,0
2017-06-02T01:53:49.273Z,0
2017-06-02T01:54:49.250Z,0
2017-06-02T01:55:49.542Z,0
2017-06-02T01:56:49.530Z,0
2017-06-02T01:57:49.527Z,0
2017-06-02T01:58:49.510Z,0
2017-06-02T01:59:49.505Z,0
2017-06-02T02:00:49.189Z,0
2017-06-02T02:01:49.179Z,0
2017-06-02T02:02:49.167Z,0
2017-06-02T02:03:49.164Z,0
2017-06-02T02:04:49.152Z,0
2017-06-02T02:05:49.137Z,0
2017-06-02T02:06:48.825Z,0
2017-06-02T02:07:49.421Z,0
2017-06-02T02:08:49.110Z,0
2017-06-02T02:09:49.095Z,0
2017-06-02T02:10:49.393Z,0
2017-06-02T02:11:49.444Z,0
2017-06-02T02:12:49.375Z,0
2017-06-02T02:13:49.364Z,0
2017-06-02T02:14:49.556Z,0
2017-06-02T02:15:49.358Z,0
2017-06-02T02:16:49.046Z,0
2017-06-02T02:17:49.315Z,0
2017-06-02T02:18:49.007Z,0
2017-06-02T02:19:49.301Z,0
2017-06-02T02:20:49.307Z,0
2017-06-02T02:21:48.982Z,0
2017-06-02T02:22:49.274Z,0
2017-06-02T02:23:49.007Z,0
2017-06-02T02:24:49.247Z,0
2017-06-02T02:25:49.242Z,0
2017-06-02T02:26:49.232Z,0
2017-06-02T02:27:49.217Z,0
2017-06-02T02:28:48.905Z,0
2017-06-02T02:29:49.203Z,0
2017-06-02T02:30:49.191Z,0
2017-06-02T02:31:49.184Z,0
2017-06-02T02:32:49.169Z,0
2017-06-02T02:33:49.160Z,0
2017-06-02T02:34:49.148Z,0
2017-06-02T02:35:49.136Z,0
2017-06-02T02:36:49.133Z,0
2017-06-02T02:37:49.117Z,0
2017-06-02T02:38:49.108Z,0
2017-06-02T02:39:48.796Z,0
2017-06-02T02:40:49.100Z,0
2017-06-02T02:41:49.092Z,0
2017-06-02T02:42:49.071Z,0
2017-06-02T02:43:49.058Z,0
2017-06-02T02:44:48.747Z,0
2017-06-02T02:45:49.040Z,0
2017-06-02T02:46:48.727Z,4
2017-06-02T02:47:49.024Z,4
2017-06-02T02:48:48.713Z,4
2017-06-02T02:49:48.999Z,0
2017-06-02T02:50:48.688Z,0
2017-06-02T02:51:48.981Z,4
2017-06-02T02:52:48.972Z,4
2017-06-02T02:53:48.962Z,4
2017-06-02T02:54:48.958Z,4
2017-06-02T02:55:48.944Z,8
2017-06-02T02:56:48.939Z,8
2017-06-02T02:57:48.920Z,8
2017-06-02T02:58:48.912Z,8
2017-06-02T02:59:48.899Z,8
2017-06-02T03:00:48.895Z,12
2017-06-02T03:01:48.879Z,16
2017-06-02T03:02:48.875Z,16
2017-06-02T03:03:48.866Z,20
2017-06-02T03:04:48.853Z,20
2017-06-02T03:05:48.843Z,24
2017-06-02T03:06:48.838Z,28
2017-06-02T03:07:48.825Z,32
2017-06-02T03:08:48.812Z,36
2017-06-02T03:09:48.809Z,44
2017-06-02T03:10:48.795Z,44
2017-06-02T03:11:48.486Z,52
2017-06-02T03:12:48.473Z,60
2017-06-02T03:13:48.465Z,68
2017-06-02T03:14:48.766Z,72
2017-06-02T03:15:48.742Z,84
2017-06-02T03:16:48.739Z,92
2017-06-02T03:17:48.726Z,108
2017-06-02T03:18:48.719Z,120
2017-06-02T03:19:48.705Z,128
2017-06-02T03:20:48.695Z,140
2017-06-02T03:21:48.695Z,152
2017-06-02T03:22:48.677Z,164
2017-06-02T03:23:48.664Z,176
2017-06-02T03:24:48.659Z,192
2017-06-02T03:25:48.649Z,208
2017-06-02T03:26:48.643Z,220
2017-06-02T03:27:48.627Z,240
2017-06-02T03:28:48.620Z,260
2017-06-02T03:29:48.611Z,280
2017-06-02T03:30:48.605Z,300
2017-06-02T03:31:48.601Z,332
2017-06-02T03:32:48.583Z,360
2017-06-02T03:33:47.968Z,388
2017-06-02T03:34:48.563Z,412
2017-06-02T03:35:48.556Z,436
2017-06-02T03:36:48.564Z,468
2017-06-02T03:37:48.539Z,504
2017-06-02T03:38:48.521Z,528
2017-06-02T03:39:48.515Z,560
2017-06-02T03:40:48.501Z,588
2017-06-02T03:41:48.492Z,612
2017-06-02T03:42:48.487Z,612
2017-06-02T03:43:48.535Z,620
2017-06-02T03:44:48.467Z,656
2017-06-02T03:45:48.453Z,692
2017-06-02T03:46:48.142Z,724
2017-06-02T03:47:48.133Z,752
2017-06-02T03:48:48.422Z,788
2017-06-02T03:49:48.413Z,832
2017-06-02T03:50:48.403Z,888
2017-06-02T03:51:48.394Z,948
2017-06-02T03:52:48.392Z,996
2017-06-02T03:53:48.376Z,1040
2017-06-02T03:54:47.766Z,1076
2017-06-02T03:55:48.353Z,1116
2017-06-02T03:56:48.049Z,1164
2017-06-02T03:57:48.333Z,1212
2017-06-02T03:58:48.019Z,1268
2017-06-02T03:59:48.314Z,1332
2017-06-02T04:00:48.310Z,1396
2017-06-02T04:01:48.291Z,1472
2017-06-02T04:02:48.280Z,1548
2017-06-02T04:03:47.968Z,1624
2017-06-02T04:04:47.960Z,1692
2017-06-02T04:05:48.252Z,1748
2017-06-02T04:06:48.242Z,1796
2017-06-02T04:07:48.225Z,1824
2017-06-02T04:08:48.218Z,1840
2017-06-02T04:09:48.199Z,1844
2017-06-02T04:10:48.198Z,1848
2017-06-02T04:11:47.882Z,1872
2017-06-02T04:12:48.174Z,1928
2017-06-02T04:13:48.161Z,2028
2017-06-02T04:14:48.145Z,2148
2017-06-02T04:15:48.139Z,2268
2017-06-02T04:16:48.134Z,2368
2017-06-02T04:17:48.117Z,2460
2017-06-02T04:18:48.109Z,2540
2017-06-02T04:19:47.489Z,2608
2017-06-02T04:20:48.082Z,2688
2017-06-02T04:21:47.775Z,2764
2017-06-02T04:22:48.065Z,2852
2017-06-02T04:23:47.745Z,2940
2017-06-02T04:24:48.040Z,3020
2017-06-02T04:25:47.730Z,3104
2017-06-02T04:26:48.014Z,3176
2017-06-02T04:27:47.703Z,3244
2017-06-02T04:28:47.697Z,3320
2017-06-02T04:29:47.985Z,3396
2017-06-02T04:30:48.176Z,3488
2017-06-02T04:31:47.967Z,3576
2017-06-02T04:32:47.950Z,3672
2017-06-02T04:33:47.637Z,3764
2017-06-02T04:34:47.629Z,3852
2017-06-02T04:35:47.668Z,3932
2017-06-02T04:36:47.608Z,4012
2017-06-02T04:37:47.596Z,4092
2017-06-02T04:38:47.579Z,4180
2017-06-02T04:39:47.566Z,4276
2017-06-02T04:40:47.562Z,4368
2017-06-02T04:41:47.549Z,4484
2017-06-02T04:42:47.836Z,4620
2017-06-02T04:43:47.824Z,4764
2017-06-02T04:44:47.815Z,4924
2017-06-02T04:45:47.808Z,5088
2017-06-02T04:46:47.493Z,5268
2017-06-02T04:47:47.477Z,5448
2017-06-02T04:48:47.768Z,5620
2017-06-02T04:49:47.757Z,5776
2017-06-02T04:50:47.748Z,5936
2017-06-02T04:51:47.738Z,6084
2017-06-02T04:52:47.743Z,6252
2017-06-02T04:53:47.411Z,6408
2017-06-02T04:54:47.402Z,6600
2017-06-02T04:55:47.699Z,6816
2017-06-02T04:56:47.682Z,7048
2017-06-02T04:57:47.669Z,7292
2017-06-02T04:58:47.656Z,7552
2017-06-02T04:59:47.652Z,7808
2017-06-02T05:00:47.664Z,8040
2017-06-02T05:01:47.624Z,8276
2017-06-02T05:02:47.311Z,8508
2017-06-02T05:03:47.602Z,8732
2017-06-02T05:04:47.591Z,8912
2017-06-02T05:05:47.278Z,9048
2017-06-02T05:06:47.575Z,9144
2017-06-02T05:07:47.561Z,9244
2017-06-02T05:08:47.556Z,9332
2017-06-02T05:09:47.538Z,9332
2017-06-02T05:10:47.524Z,9252
2017-06-02T05:11:47.516Z,9180
2017-06-02T05:12:47.504Z,9144
2017-06-02T05:13:47.492Z,9112
2017-06-02T05:14:47.180Z,9116
2017-06-02T05:15:47.467Z,9120
2017-06-02T05:16:47.463Z,9184
2017-06-02T05:17:47.449Z,9264
2017-06-02T05:18:47.435Z,9412
2017-06-02T05:19:47.428Z,9732
2017-06-02T05:20:47.430Z,10116
2017-06-02T05:21:47.410Z,10508
2017-06-02T05:22:47.093Z,10848
2017-06-02T05:23:47.381Z,11272
2017-06-02T05:24:47.371Z,11744
2017-06-02T05:25:47.059Z,12280
2017-06-02T05:26:47.352Z,12644
2017-06-02T05:27:47.341Z,12816
2017-06-02T05:28:47.023Z,12948
2017-06-02T05:29:47.328Z,13092
2017-06-02T05:30:47.008Z,13264
2017-06-02T05:31:46.996Z,13440
2017-06-02T05:32:46.983Z,13584
2017-06-02T05:33:47.273Z,13692
2017-06-02T05:34:46.962Z,13768
2017-06-02T05:35:46.948Z,13788
2017-06-02T05:36:46.935Z,13748
2017-06-02T05:37:47.224Z,13736
2017-06-02T05:38:47.217Z,13784
2017-06-02T05:39:47.207Z,13948
2017-06-02T05:40:47.188Z,14112
2017-06-02T05:41:47.184Z,14232
2017-06-02T05:42:47.178Z,14300
2017-06-02T05:43:47.157Z,14308
2017-06-02T05:44:46.847Z,14304
2017-06-02T05:45:46.534Z,14324
2017-06-02T05:46:47.133Z,14420
2017-06-02T05:47:47.121Z,14616
2017-06-02T05:48:46.861Z,14812
2017-06-02T05:49:47.089Z,14952
2017-06-02T05:50:46.784Z,15000
2017-06-02T05:51:47.072Z,14980
2017-06-02T05:52:47.063Z,14904
2017-06-02T05:53:47.047Z,14804
2017-06-02T05:54:47.043Z,14656
2017-06-02T05:55:46.726Z,14464
2017-06-02T05:56:47.021Z,14280
2017-06-02T05:57:46.716Z,14140
2017-06-02T05:58:46.693Z,14056
2017-06-02T05:59:46.682Z,14032
2017-06-02T06:00:46.975Z,14124
2017-06-02T06:01:46.966Z,14352
2017-06-02T06:02:46.953Z,14712
2017-06-02T06:03:46.640Z,15080
2017-06-02T06:04:46.928Z,15480
2017-06-02T06:05:46.922Z,15956
2017-06-02T06:06:46.911Z,16548
2017-06-02T06:07:46.900Z,17272
2017-06-02T06:08:46.889Z,18304
2017-06-02T06:09:46.878Z,19168
2017-06-02T06:10:46.872Z,19872
2017-06-02T06:11:46.861Z,20384
2017-06-02T06:12:46.244Z,20608
2017-06-02T06:13:46.834Z,20576
2017-06-02T06:14:46.828Z,20224
2017-06-02T06:15:46.820Z,19744
2017-06-02T06:16:46.802Z,19136
2017-06-02T06:17:46.795Z,18720
2017-06-02T06:18:46.796Z,18400
2017-06-02T06:19:46.479Z,18208
2017-06-02T06:20:46.767Z,17984
2017-06-02T06:21:46.757Z,17496
2017-06-02T06:22:46.746Z,17244
2017-06-02T06:23:46.732Z,17020
2017-06-02T06:24:46.722Z,16696
2017-06-02T06:25:46.712Z,16240
2017-06-02T06:26:46.398Z,15812
2017-06-02T06:27:46.692Z,15548
2017-06-02T06:28:46.683Z,15328
2017-06-02T06:29:46.668Z,15244
2017-06-02T06:30:46.356Z,15424
2017-06-02T06:31:46.692Z,15824
2017-06-02T06:32:46.340Z,16432
2017-06-02T06:33:46.633Z,17216
2017-06-02T06:34:46.693Z,18368
2017-06-02T06:35:46.615Z,19360
2017-06-02T06:36:46.305Z,20192
2017-06-02T06:37:46.594Z,20768
2017-06-02T06:38:46.581Z,21024
2017-06-02T06:39:46.568Z,20832
2017-06-02T06:40:46.563Z,20224
2017-06-02T06:41:46.251Z,19424
2017-06-02T06:42:46.539Z,18656
2017-06-02T06:43:46.536Z,18336
2017-06-02T06:44:46.521Z,18272
2017-06-02T06:48:05.402Z,19040
2017-06-02T06:48:46.182Z,19232
2017-06-02T06:49:46.480Z,19584
2017-06-02T06:50:46.465Z,20064
2017-06-02T06:51:46.465Z,20704
2017-06-02T06:52:46.449Z,21344
2017-06-02T06:53:46.133Z,22144
2017-06-02T06:54:46.432Z,23296
2017-06-02T06:55:46.447Z,24384
2017-06-02T06:56:46.417Z,25600
2017-06-02T06:57:46.465Z,26912
2017-06-02T06:58:46.093Z,28096
2017-06-02T06:59:46.436Z,28960
2017-06-02T07:00:46.377Z,29472
2017-06-02T07:01:46.376Z,29536
2017-06-02T07:02:46.057Z,29568
2017-06-02T07:03:46.350Z,29664
2017-06-02T07:04:46.339Z,29952
2017-06-02T07:05:46.334Z,30336
2017-06-02T07:06:46.321Z,30688
2017-06-02T07:07:46.315Z,30688
2017-06-02T07:08:46.305Z,30688
2017-06-02T07:09:45.996Z,30944
2017-06-02T07:10:46.285Z,31168
2017-06-02T07:11:46.279Z,31360
2017-06-02T07:12:46.286Z,31424
2017-06-02T07:13:46.268Z,31712
2017-06-02T07:14:46.251Z,32000
2017-06-02T07:15:46.241Z,31808
2017-06-02T07:16:45.948Z,30624
2017-06-02T07:17:45.927Z,29824
2017-06-02T07:18:46.267Z,29536
2017-06-02T07:19:46.214Z,29056
2017-06-02T07:20:45.899Z,28832
2017-06-02T07:21:46.194Z,28896
2017-06-02T07:22:46.186Z,29344
2017-06-02T07:23:45.880Z,30336
2017-06-02T07:24:46.166Z,32096
2017-06-02T07:25:46.161Z,34144
2017-06-02T07:26:45.859Z,35520
2017-06-02T07:27:45.844Z,36192
2017-06-02T07:28:45.835Z,35968
2017-06-02T07:29:46.131Z,35008
2017-06-02T07:30:46.176Z,33248
2017-06-02T07:31:46.115Z,31776
2017-06-02T07:32:46.108Z,30848
2017-06-02T07:33:46.107Z,30592
2017-06-02T07:34:46.089Z,31200
2017-06-02T07:35:45.784Z,32128
2017-06-02T07:36:45.770Z,33600
2017-06-02T07:37:45.768Z,36000
2017-06-02T07:38:46.058Z,38176
2017-06-02T07:39:45.750Z,39456
2017-06-02T07:40:46.046Z,40448
2017-06-02T07:41:46.035Z,40832
2017-06-02T07:42:45.724Z,39904
2017-06-02T07:43:46.019Z,39232
2017-06-02T07:44:45.710Z,38208
2017-06-02T07:45:46.005Z,37120
2017-06-02T07:46:45.695Z,36960
2017-06-02T07:47:45.990Z,38112
2017-06-02T07:48:45.982Z,40704
2017-06-02T07:49:45.678Z,42816
2017-06-02T07:50:45.971Z,43520
2017-06-02T07:51:45.961Z,44768
2017-06-02T07:52:45.654Z,45888
2017-06-02T07:53:45.946Z,46784
2017-06-02T07:54:45.939Z,47616
2017-06-02T07:55:45.932Z,47904
2017-06-02T07:56:45.920Z,47008
2017-06-02T07:57:45.918Z,46368
2017-06-02T07:58:45.913Z,46496
2017-06-02T07:59:45.933Z,45472
2017-06-02T08:00:45.899Z,43680
2017-06-02T08:01:45.895Z,42368
2017-06-02T08:02:45.886Z,41120
2017-06-02T08:03:45.883Z,39840
2017-06-02T08:04:45.873Z,38272
2017-06-02T08:05:45.870Z,37792
2017-06-02T08:06:45.862Z,37312
2017-06-02T08:07:45.845Z,36736
2017-06-02T08:08:45.845Z,36672
2017-06-02T08:09:45.840Z,36960
2017-06-02T08:10:45.829Z,37120
2017-06-02T08:11:45.523Z,37440
2017-06-02T08:12:45.516Z,37472
2017-06-02T08:13:45.509Z,38080
2017-06-02T08:14:45.808Z,38720
2017-06-02T08:15:45.800Z,39168
2017-06-02T08:16:45.494Z,39424
2017-06-02T08:17:45.785Z,39840
2017-06-02T08:18:45.777Z,40704
2017-06-02T08:19:45.770Z,41280
2017-06-02T08:20:45.767Z,42112
2017-06-02T08:21:45.757Z,43168
2017-06-02T08:22:45.753Z,44544
2017-06-02T08:23:45.760Z,46336
2017-06-02T08:24:45.741Z,47456
2017-06-02T08:25:45.730Z,47040
2017-06-02T08:26:45.719Z,47168
2017-06-02T08:27:45.717Z,47200
2017-06-02T08:28:45.707Z,46976
2017-06-02T08:29:45.698Z,46944
2017-06-02T08:30:45.091Z,46848
2017-06-02T08:31:45.385Z,47136
2017-06-02T08:32:45.679Z,49248
2017-06-02T08:33:45.669Z,52032
2017-06-02T08:34:45.667Z,52640
2017-06-02T08:35:45.666Z,54368
2017-06-02T08:36:45.653Z,56672
2017-06-02T08:37:45.652Z,59744
2017-06-02T08:38:45.647Z,61408
2017-06-02T08:39:45.632Z,59264
2017-06-02T08:40:45.649Z,59232
2017-06-02T08:41:45.624Z,62400
2017-06-02T08:42:45.610Z,58400
2017-06-02T08:43:45.605Z,58336
2017-06-02T08:44:45.596Z,59648
2017-06-02T08:45:45.287Z,61760
2017-06-02T08:46:45.584Z,71904
2017-06-02T08:47:45.572Z,67200
2017-06-02T08:48:45.572Z,62560
2017-06-02T08:49:45.264Z,61728
2017-06-02T08:50:45.552Z,62176
2017-06-02T08:51:45.243Z,62816
2017-06-02T08:52:45.535Z,63872
2017-06-02T08:53:45.231Z,66016
2017-06-02T08:54:45.221Z,68544
2017-06-02T08:55:45.519Z,69344
2017-06-02T08:56:45.212Z,70528
2017-06-02T08:57:45.201Z,69600
2017-06-02T08:58:45.501Z,69984
2017-06-02T08:59:45.495Z,72352
2017-06-02T09:00:45.523Z,85376
2017-06-02T09:01:45.205Z,95232
2017-06-02T09:02:45.471Z,76384
2017-06-02T09:03:45.168Z,74656
2017-06-02T09:04:45.460Z,78432
2017-06-02T09:05:44.846Z,84160
2017-06-02T09:06:45.463Z,91136
2017-06-02T09:07:45.433Z,92768
2017-06-02T09:08:45.426Z,84736
2017-06-02T09:09:45.417Z,87104
2017-06-02T09:10:45.414Z,105760
2017-06-02T09:11:45.407Z,79584
2017-06-02T09:12:45.399Z,75104
2017-06-02T09:13:45.402Z,75776
2017-06-02T09:14:45.390Z,77440
2017-06-02T09:15:45.382Z,77728
2017-06-02T09:16:45.449Z,80320
2017-06-02T09:17:45.365Z,78848
2017-06-02T09:18:45.127Z,77664
2017-06-02T09:19:45.053Z,78560
2017-06-02T09:20:45.049Z,78112
2017-06-02T09:21:45.338Z,80512
2017-06-02T09:22:45.027Z,91360
2017-06-02T09:23:45.020Z,91616
2017-06-02T09:24:45.321Z,82848
2017-06-02T09:25:45.314Z,81952
2017-06-02T09:26:45.308Z,90112
2017-06-02T09:27:45.300Z,121120
2017-06-02T09:28:44.991Z,83296
2017-06-02T09:29:45.287Z,81152
2017-06-02T09:30:45.278Z,86112
2017-06-02T09:31:45.271Z,89184
2017-06-02T09:32:45.269Z,114080
2017-06-02T09:33:45.264Z,143616
2017-06-02T09:34:45.256Z,123296
2017-06-02T09:35:45.255Z,85088
2017-06-02T09:36:45.245Z,82976
2017-06-02T09:37:45.233Z,85280
2017-06-02T09:38:45.231Z,87488
2017-06-02T09:39:45.223Z,87552
2017-06-02T09:40:44.621Z,88352
2017-06-02T09:41:45.209Z,79200
2017-06-02T09:42:45.204Z,78208
2017-06-02T09:43:45.202Z,79680
2017-06-02T09:44:45.207Z,82240
2017-06-02T09:45:45.191Z,97280
2017-06-02T09:46:45.187Z,98688
2017-06-02T09:47:45.177Z,95168
2017-06-02T09:48:45.177Z,101568
2017-06-02T09:49:45.169Z,133984
2017-06-02T09:50:45.165Z,91264
2017-06-02T09:51:45.155Z,86336
2017-06-02T09:52:45.151Z,95424
2017-06-02T09:53:45.148Z,104064
2017-06-02T09:54:45.143Z,106336
2017-06-02T09:55:44.840Z,124000
2017-06-02T09:56:45.134Z,139904
2017-06-02T09:57:45.118Z,125984
2017-06-02T09:58:45.121Z,122944
2017-06-02T09:59:45.117Z,100192
2017-06-02T10:00:44.805Z,105888
2017-06-02T10:01:44.799Z,134016
2017-06-02T10:02:44.797Z,141856
2017-06-02T10:03:45.088Z,140832
2017-06-02T10:04:45.148Z,141984
2017-06-02T10:05:45.086Z,138368
2017-06-02T10:06:44.778Z,125344
2017-06-02T10:07:45.071Z,129248
2017-06-02T10:08:45.069Z,112832
2017-06-02T10:09:45.061Z,116640
2017-06-02T10:10:45.057Z,131680
2017-06-02T10:11:44.747Z,128064
2017-06-02T10:12:45.050Z,139104
2017-06-02T10:13:45.041Z,136224
2017-06-02T10:14:45.043Z,136736
2017-06-02T10:15:45.048Z,39456
2017-06-02T10:16:45.039Z,39040
2017-06-02T10:17:45.103Z,68864
2017-06-02T10:18:45.030Z,104704
2017-06-02T10:19:45.027Z,31776
2017-06-02T10:20:44.724Z,29120
2017-06-02T10:21:45.021Z,27584
2017-06-02T10:22:45.020Z,26816
2017-06-02T10:23:45.017Z,26336
2017-06-02T10:24:45.012Z,26464
2017-06-02T10:25:45.014Z,27488
2017-06-02T10:26:45.007Z,27872
2017-06-02T10:27:44.996Z,28064
2017-06-02T10:28:44.996Z,28832
2017-06-02T10:29:44.685Z,29792
2017-06-02T10:30:44.986Z,30016
2017-06-02T10:31:44.677Z,29632
2017-06-02T10:32:44.977Z,28544
2017-06-02T10:33:44.964Z,28128
2017-06-02T10:34:44.967Z,27936
2017-06-02T10:35:44.953Z,27168
2017-06-02T10:36:44.942Z,26656
2017-06-02T10:37:44.943Z,26528
2017-06-02T10:38:44.638Z,26432
2017-06-02T10:39:44.931Z,26208
2017-06-02T10:40:44.621Z,25952
2017-06-02T10:41:44.914Z,25760
2017-06-02T10:42:44.604Z,25824
2017-06-02T10:43:44.900Z,25664
2017-06-02T10:44:44.896Z,25664
2017-06-02T10:45:44.886Z,26176
2017-06-02T10:46:44.879Z,26624
2017-06-02T10:47:44.566Z,27168
2017-06-02T10:48:44.860Z,27232
2017-06-02T10:49:44.852Z,27744
2017-06-02T10:50:44.848Z,28960
2017-06-02T10:51:44.837Z,29792
2017-06-02T10:52:44.830Z,30272
2017-06-02T10:53:44.821Z,30912
2017-06-02T10:54:44.810Z,32192
2017-06-02T10:55:44.808Z,33472
2017-06-02T10:56:44.799Z,33632
2017-06-02T10:57:44.490Z,34176
2017-06-02T10:58:44.795Z,35040
2017-06-02T10:59:44.774Z,35968
2017-06-02T11:00:44.470Z,36160
2017-06-02T11:01:44.761Z,35552
2017-06-02T11:02:44.749Z,34944
2017-06-02T11:03:44.741Z,34880
2017-06-02T11:04:44.736Z,34976
2017-06-02T11:05:44.724Z,33984
2017-06-02T11:06:44.713Z,32480
2017-06-02T11:07:44.702Z,33696
2017-06-02T11:08:44.697Z,34464
2017-06-02T11:09:44.691Z,34176
2017-06-02T11:10:44.681Z,34496
2017-06-02T11:11:44.670Z,35808
2017-06-02T11:12:44.664Z,37888
2017-06-02T11:13:44.667Z,39168
2017-06-02T11:14:44.651Z,40960
2017-06-02T11:15:44.651Z,40864
2017-06-02T11:16:44.652Z,40768
2017-06-02T11:17:44.644Z,40640
2017-06-02T11:18:44.620Z,39264
2017-06-02T11:19:44.639Z,37504
2017-06-02T11:20:44.307Z,34240
2017-06-02T11:21:44.655Z,34560
2017-06-02T11:22:44.636Z,38848
2017-06-02T11:23:44.583Z,41792
2017-06-02T11:24:44.570Z,44448
2017-06-02T11:25:44.263Z,40704
2017-06-02T11:26:44.556Z,39072
2017-06-02T11:27:44.544Z,34560
2017-06-02T11:28:44.536Z,31072
2017-06-02T11:29:44.530Z,27904
2017-06-02T11:30:44.521Z,27072
2017-06-02T11:31:44.515Z,27456
2017-06-02T11:32:44.210Z,24928
2017-06-02T11:33:44.502Z,24704
2017-06-02T11:34:44.189Z,25152
2017-06-02T11:35:44.488Z,24416
2017-06-02T11:36:44.478Z,20192
2017-06-02T11:37:44.469Z,17920
2017-06-02T11:38:44.458Z,16760
2017-06-02T11:39:44.150Z,18848
2017-06-02T11:40:44.148Z,20448
2017-06-02T11:41:44.437Z,21344
2017-06-02T11:42:44.425Z,19936
2017-06-02T11:43:44.414Z,19744
2017-06-02T11:44:44.409Z,22816
2017-06-02T11:45:44.402Z,25888
2017-06-02T11:46:44.396Z,23712
2017-06-02T11:47:44.387Z,20288
2017-06-02T11:48:44.377Z,18592
2017-06-02T11:49:44.369Z,18080
2017-06-02T11:50:44.359Z,18080
2017-06-02T11:51:44.363Z,18240
2017-06-02T11:52:44.344Z,18368
2017-06-02T11:53:44.330Z,19488
2017-06-02T11:54:44.327Z,21280
2017-06-02T11:55:44.316Z,23552
2017-06-02T11:56:44.308Z,25312
2017-06-02T11:57:44.306Z,26752
2017-06-02T11:58:44.291Z,29248
2017-06-02T11:59:44.289Z,31968
2017-06-02T12:00:44.272Z,33568
2017-06-02T12:01:43.962Z,35168
2017-06-02T12:02:44.250Z,36960
2017-06-02T12:03:44.248Z,38464
2017-06-02T12:04:44.236Z,38624
2017-06-02T12:05:44.229Z,38816
2017-06-02T12:06:43.914Z,38784
2017-06-02T12:07:44.208Z,39328
2017-06-02T12:08:44.205Z,40640
2017-06-02T12:09:44.195Z,44608
2017-06-02T12:10:44.183Z,49216
2017-06-02T12:11:44.175Z,62016
2017-06-02T12:12:44.167Z,195232
2017-06-02T12:13:43.865Z,132160
2017-06-02T12:14:44.159Z,71904
2017-06-02T12:15:44.139Z,59936
2017-06-02T12:16:44.138Z,54848
2017-06-02T12:17:44.135Z,54336
2017-06-02T12:18:44.121Z,54784
2017-06-02T12:19:44.121Z,68256
2017-06-02T12:20:44.116Z,113984
2017-06-02T12:21:44.107Z,53472
2017-06-02T12:22:44.103Z,48800
2017-06-02T12:23:44.092Z,47200
2017-06-02T12:24:44.080Z,48032
2017-06-02T12:25:44.075Z,50848
2017-06-02T12:26:44.066Z,107840
2017-06-02T12:27:44.058Z,155552
2017-06-02T12:28:44.053Z,157856
2017-06-02T12:29:44.047Z,147296
2017-06-02T12:30:44.038Z,143872
2017-06-02T12:31:44.029Z,143168
2017-06-02T12:32:44.021Z,140576
2017-06-02T12:33:44.015Z,56640
2017-06-02T12:34:44.019Z,72320
2017-06-02T12:35:44.006Z,91168
2017-06-02T12:36:43.997Z,173216
2017-06-02T12:37:43.986Z,175584
2017-06-02T12:38:43.981Z,175008
2017-06-02T12:39:43.982Z,175488
2017-06-02T12:40:43.969Z,186720
2017-06-02T12:41:43.964Z,107360
2017-06-02T12:42:43.958Z,185792
2017-06-02T12:43:43.958Z,180192
2017-06-02T12:44:43.947Z,98368
2017-06-02T12:45:43.941Z,161472
2017-06-02T12:46:43.635Z,151904
2017-06-02T12:47:43.936Z,77088
2017-06-02T12:48:43.933Z,148960
2017-06-02T12:49:43.924Z,156768
2017-06-02T12:50:43.620Z,167200
2017-06-02T12:51:43.923Z,120736
2017-06-02T12:52:43.917Z,101024
2017-06-02T12:53:43.902Z,134112
2017-06-02T12:54:43.905Z,145216
2017-06-02T12:55:43.906Z,148992
2017-06-02T12:56:43.594Z,155680
2017-06-02T12:57:43.603Z,138080
2017-06-02T12:58:43.888Z,76896
2017-06-02T12:59:43.903Z,168288
2017-06-02T13:00:43.891Z,164800
2017-06-02T13:01:43.880Z,170304
2017-06-02T13:02:43.877Z,169920
2017-06-02T13:03:43.870Z,103360
2017-06-02T13:04:43.568Z,137184
2017-06-02T13:05:43.558Z,106752
2017-06-02T13:06:43.857Z,95904
2017-06-02T13:07:43.249Z,83680
2017-06-02T13:08:43.857Z,179200
2017-06-02T13:09:43.845Z,166144
2017-06-02T13:10:43.534Z,73792
2017-06-02T13:11:43.841Z,82624
2017-06-02T13:12:43.848Z,73184
2017-06-02T13:13:43.223Z,71712
2017-06-02T13:14:43.523Z,87616
2017-06-02T13:15:43.818Z,82528
2017-06-02T13:16:43.810Z,63520
2017-06-02T13:17:43.807Z,95328
2017-06-02T13:18:43.795Z,81536
2017-06-02T13:19:43.801Z,112160
2017-06-02T13:20:43.798Z,98144
2017-06-02T13:21:43.784Z,75168
2017-06-02T13:22:43.785Z,71776